createdAt,value
2018-07-23T00:00:27.549Z,1002.87
2018-07-23T00:01:27.540Z,1002.91
2018-07-23T00:02:27.529Z,1002.93
2018-07-23T00:03:27.516Z,1002.88
2018-07-23T00:04:27.523Z,1002.92
2018-07-23T00:05:27.495Z,1002.90
2018-07-23T00:06:27.486Z,1002.92
2018-07-23T00:07:27.475Z,1002.86
2018-07-23T00:08:27.461Z,1002.91
2018-07-23T00:09:27.450Z,1002.88
2018-07-23T00:10:27.465Z,1002.85
2018-07-23T00:11:27.432Z,1002.84
2018-07-23T00:12:27.421Z,1002.82
2018-07-23T00:13:27.407Z,1002.82
2018-07-23T00:14:27.400Z,1002.82
2018-07-23T00:15:27.385Z,1002.84
2018-07-23T00:16:27.395Z,1002.85
2018-07-23T00:17:27.364Z,1002.84
2018-07-23T00:18:27.356Z,1002.84
2018-07-23T00:19:27.345Z,1002.88
2018-07-23T00:20:27.330Z,1002.84
2018-07-23T00:21:27.324Z,1002.86
2018-07-23T00:22:27.327Z,1002.84
2018-07-23T00:23:27.301Z,1002.86
2018-07-23T00:24:27.290Z,1002.82
2018-07-23T00:25:27.277Z,1002.86
2018-07-23T00:26:27.285Z,1002.82
2018-07-23T00:27:27.258Z,1002.83
2018-07-23T00:28:27.245Z,1002.85
2018-07-23T00:29:27.250Z,1002.80
2018-07-23T00:30:27.223Z,1002.83
2018-07-23T00:31:27.213Z,1002.83
2018-07-23T00:32:27.227Z,1002.85
2018-07-23T00:33:27.193Z,1002.89
2018-07-23T00:34:27.179Z,1002.90
2018-07-23T00:35:27.173Z,1002.86
2018-07-23T00:36:27.160Z,1002.92
2018-07-23T00:37:27.150Z,1002.93
2018-07-23T00:38:27.155Z,1002.87
2018-07-23T00:39:27.141Z,1002.93
2018-07-23T00:40:27.117Z,1002.85
2018-07-23T00:41:27.107Z,1002.88
2018-07-23T00:42:27.115Z,1002.90
2018-07-23T00:43:27.084Z,1002.94
2018-07-23T00:44:27.071Z,1002.96
2018-07-23T00:45:27.061Z,1002.99
2018-07-23T00:46:27.051Z,1002.98
2018-07-23T00:47:27.042Z,1002.99
2018-07-23T00:48:27.045Z,1003.02
2018-07-23T00:49:27.018Z,1003.00
2018-07-23T00:50:27.008Z,1003.03
2018-07-23T00:51:26.999Z,1003.02
2018-07-23T00:52:26.989Z,1003.00
2018-07-23T00:53:26.997Z,1002.99
2018-07-23T00:54:26.968Z,1003.00
2018-07-23T00:55:26.954Z,1003.01
2018-07-23T00:56:26.945Z,1002.99
2018-07-23T00:57:26.932Z,1002.95
2018-07-23T00:58:26.923Z,1002.98
2018-07-23T00:59:26.954Z,1002.94
2018-07-23T01:00:26.902Z,1002.97
2018-07-23T01:01:26.891Z,1003.01
2018-07-23T01:02:26.880Z,1002.97
2018-07-23T01:03:26.870Z,1002.97
2018-07-23T01:04:26.863Z,1002.98
2018-07-23T01:05:26.863Z,1002.94
2018-07-23T01:06:26.837Z,1003.00
2018-07-23T01:07:26.825Z,1002.98
2018-07-23T01:08:26.817Z,1003.01
2018-07-23T01:09:26.816Z,1002.99
2018-07-23T01:10:26.794Z,1002.98
2018-07-23T01:11:26.798Z,1002.94
2018-07-23T01:12:26.773Z,1002.98
2018-07-23T01:13:26.762Z,1003.02
2018-07-23T01:14:26.765Z,1003.01
2018-07-23T01:15:26.737Z,1003.02
2018-07-23T01:16:26.731Z,1003.00
2018-07-23T01:17:26.720Z,1003.00
2018-07-23T01:18:26.706Z,1003.00
2018-07-23T01:19:26.718Z,1003.01
2018-07-23T01:20:26.688Z,1003.02
2018-07-23T01:21:26.679Z,1003.01
2018-07-23T01:22:26.664Z,1002.96
2018-07-23T01:23:26.652Z,1002.97
2018-07-23T01:24:26.642Z,1002.99
2018-07-23T01:25:26.648Z,1002.94
2018-07-23T01:26:26.623Z,1002.95
2018-07-23T01:27:26.616Z,1002.96
2018-07-23T01:28:26.599Z,1002.95
2018-07-23T01:29:26.601Z,1002.95
2018-07-23T01:30:26.578Z,1002.94
2018-07-23T01:31:26.569Z,1002.97
2018-07-23T01:32:26.558Z,1002.95
2018-07-23T01:33:26.561Z,1002.96
2018-07-23T01:34:26.534Z,1002.95
2018-07-23T01:35:26.526Z,1002.95
2018-07-23T01:36:26.533Z,1002.96
2018-07-23T01:37:26.504Z,1002.97
2018-07-23T01:38:26.492Z,1002.94
2018-07-23T01:39:26.482Z,1002.95
2018-07-23T01:40:26.472Z,1002.95
2018-07-23T01:41:26.460Z,1002.94
2018-07-23T01:42:26.492Z,1002.94
2018-07-23T01:43:26.436Z,1002.95
2018-07-23T01:44:26.428Z,1002.97
2018-07-23T01:45:26.415Z,1002.97
2018-07-23T01:46:26.407Z,1002.97
2018-07-23T01:47:26.397Z,1002.99
2018-07-23T01:48:26.400Z,1002.94
2018-07-23T01:49:26.373Z,1002.95
2018-07-23T01:50:26.368Z,1002.97
2018-07-23T01:51:26.383Z,1002.96
2018-07-23T01:52:26.344Z,1002.91
2018-07-23T01:53:26.332Z,1002.96
2018-07-23T01:54:26.321Z,1002.93
2018-07-23T01:55:26.308Z,1002.94
2018-07-23T01:56:26.296Z,1002.93
2018-07-23T01:57:26.323Z,1002.94
2018-07-23T01:58:26.276Z,1002.92
2018-07-23T01:59:26.265Z,1002.93
2018-07-23T02:00:26.256Z,1002.93
2018-07-23T02:01:26.246Z,1002.96
2018-07-23T02:02:26.235Z,1002.97
2018-07-23T02:03:26.236Z,1002.95
2018-07-23T02:04:26.213Z,1002.95
2018-07-23T02:05:26.200Z,1002.97
2018-07-23T02:06:26.202Z,1002.98
2018-07-23T02:07:26.182Z,1002.95
2018-07-23T02:08:26.208Z,1002.95
2018-07-23T02:09:26.159Z,1002.94
2018-07-23T02:10:26.145Z,1002.96
2018-07-23T02:11:26.140Z,1002.94
2018-07-23T02:12:26.124Z,1002.97
2018-07-23T02:13:26.115Z,1002.95
2018-07-23T02:14:26.117Z,1002.96
2018-07-23T02:15:26.092Z,1002.97
2018-07-23T02:16:26.088Z,1002.97
2018-07-23T02:17:26.090Z,1002.99
2018-07-23T02:18:26.063Z,1002.97
2018-07-23T02:19:26.049Z,1003.00
2018-07-23T02:20:26.041Z,1002.97
2018-07-23T02:21:26.028Z,1002.97
2018-07-23T02:22:26.017Z,1002.97
2018-07-23T02:23:26.020Z,1002.99
2018-07-23T02:24:25.996Z,1002.97
2018-07-23T02:25:26.000Z,1002.96
2018-07-23T02:26:25.976Z,1002.95
2018-07-23T02:27:25.963Z,1002.95
2018-07-23T02:28:25.954Z,1002.96
2018-07-23T02:29:25.941Z,1002.98
2018-07-23T02:30:25.944Z,1002.95
2018-07-23T02:31:25.936Z,1002.97
2018-07-23T02:32:25.910Z,1002.93
2018-07-23T02:33:25.900Z,1002.97
2018-07-23T02:34:25.889Z,1003.00
2018-07-23T02:35:25.889Z,1003.02
2018-07-23T02:36:25.879Z,1003.00
2018-07-23T02:37:25.869Z,1003.03
2018-07-23T02:38:25.846Z,1003.02
2018-07-23T02:39:25.833Z,1003.01
2018-07-23T02:40:25.821Z,1003.00
2018-07-23T02:41:25.824Z,1003.03
2018-07-23T02:42:25.801Z,1003.00
2018-07-23T02:43:25.792Z,1003.03
2018-07-23T02:44:25.780Z,1003.01
2018-07-23T02:45:25.766Z,1002.99
2018-07-23T02:46:25.777Z,1003.01
2018-07-23T02:47:25.749Z,1003.04
2018-07-23T02:48:25.736Z,1003.03
2018-07-23T02:49:25.721Z,1003.05
2018-07-23T02:50:25.711Z,1003.05
2018-07-23T02:51:25.702Z,1003.08
2018-07-23T02:52:25.729Z,1003.09
2018-07-23T02:53:25.681Z,1003.07
2018-07-23T02:54:25.667Z,1003.14
2018-07-23T02:55:25.654Z,1003.13
2018-07-23T02:56:25.645Z,1003.17
2018-07-23T02:57:25.634Z,1003.16
2018-07-23T02:58:25.638Z,1003.20
2018-07-23T02:59:25.617Z,1003.19
2018-07-23T03:00:25.601Z,1003.18
2018-07-23T03:01:25.592Z,1003.28
2018-07-23T03:02:25.585Z,1003.28
2018-07-23T03:03:25.582Z,1003.24
2018-07-23T03:04:25.557Z,1003.28
2018-07-23T03:05:25.547Z,1003.33
2018-07-23T03:06:25.537Z,1003.35
2018-07-23T03:07:25.526Z,1003.35
2018-07-23T03:08:25.524Z,1003.35
2018-07-23T03:09:25.502Z,1003.43
2018-07-23T03:10:25.492Z,1003.46
2018-07-23T03:11:25.479Z,1003.45
2018-07-23T03:12:25.489Z,1003.45
2018-07-23T03:13:25.458Z,1003.46
2018-07-23T03:14:25.449Z,1003.46
2018-07-23T03:15:25.434Z,1003.43
2018-07-23T03:16:25.432Z,1003.44
2018-07-23T03:17:25.414Z,1003.45
2018-07-23T03:18:25.422Z,1003.45
2018-07-23T03:19:25.389Z,1003.49
2018-07-23T03:20:25.380Z,1003.54
2018-07-23T03:21:25.384Z,1003.55
2018-07-23T03:22:25.385Z,1003.55
2018-07-23T03:23:25.346Z,1003.55
2018-07-23T03:24:25.336Z,1003.58
2018-07-23T03:25:25.322Z,1003.57
2018-07-23T03:26:25.310Z,1003.59
2018-07-23T03:27:25.314Z,1003.63
2018-07-23T03:28:25.312Z,1003.65
2018-07-23T03:29:25.278Z,1003.64
2018-07-23T03:30:25.268Z,1003.68
2018-07-23T03:31:25.256Z,1003.60
2018-07-23T03:32:25.247Z,1003.65
2018-07-23T03:33:25.257Z,1003.67
2018-07-23T03:34:25.233Z,1003.71
2018-07-23T03:35:25.209Z,1003.70
2018-07-23T03:36:25.200Z,1003.75
2018-07-23T03:37:25.186Z,1003.68
2018-07-23T03:38:25.188Z,1003.73
2018-07-23T03:39:25.165Z,1003.69
2018-07-23T03:40:25.154Z,1003.69
2018-07-23T03:41:25.145Z,1003.74
2018-07-23T03:42:25.135Z,1003.73
2018-07-23T03:43:25.170Z,1003.71
2018-07-23T03:44:25.124Z,1003.65
2018-07-23T03:45:25.099Z,1003.74
2018-07-23T03:46:25.088Z,1003.69
2018-07-23T03:47:25.079Z,1003.67
2018-07-23T03:48:25.071Z,1003.69
2018-07-23T03:49:25.070Z,1003.71
2018-07-23T03:50:25.051Z,1003.67
2018-07-23T03:51:25.034Z,1003.69
2018-07-23T03:52:25.021Z,1003.70
2018-07-23T03:53:25.012Z,1003.71
2018-07-23T03:54:25.044Z,1003.71
2018-07-23T03:55:24.991Z,1003.73
2018-07-23T03:56:24.980Z,1003.69
2018-07-23T03:57:24.970Z,1003.70
2018-07-23T03:58:24.956Z,1003.65
2018-07-23T03:59:24.966Z,1003.62
2018-07-23T04:00:24.933Z,1003.63
2018-07-23T04:01:24.925Z,1003.67
2018-07-23T04:02:24.913Z,1003.66
2018-07-23T04:03:24.913Z,1003.67
2018-07-23T04:04:24.892Z,1003.66
2018-07-23T04:05:24.895Z,1003.67
2018-07-23T04:06:24.868Z,1003.65
2018-07-23T04:07:24.873Z,1003.69
2018-07-23T04:08:24.851Z,1003.63
2018-07-23T04:09:24.837Z,1003.67
2018-07-23T04:10:24.837Z,1003.68
2018-07-23T04:11:24.814Z,1003.67
2018-07-23T04:12:24.802Z,1003.68
2018-07-23T04:13:24.793Z,1003.67
2018-07-23T04:14:24.780Z,1003.70
2018-07-23T04:15:24.781Z,1003.67
2018-07-23T04:16:24.772Z,1003.70
2018-07-23T04:17:24.759Z,1003.74
2018-07-23T04:18:24.734Z,1003.71
2018-07-23T04:19:24.726Z,1003.68
2018-07-23T04:20:24.711Z,1003.71
2018-07-23T04:21:24.726Z,1003.69
2018-07-23T04:22:24.689Z,1003.69
2018-07-23T04:23:24.680Z,1003.65
2018-07-23T04:24:24.668Z,1003.69
2018-07-23T04:25:24.658Z,1003.69
2018-07-23T04:26:24.643Z,1003.67
2018-07-23T04:27:24.654Z,1003.65
2018-07-23T04:28:24.625Z,1003.70
2018-07-23T04:29:24.612Z,1003.71
2018-07-23T04:30:24.598Z,1003.75
2018-07-23T04:31:24.589Z,1003.72
2018-07-23T04:32:24.578Z,1003.72
2018-07-23T04:33:24.580Z,1003.74
2018-07-23T04:34:24.556Z,1003.76
2018-07-23T04:35:24.558Z,1003.70
2018-07-23T04:36:24.534Z,1003.73
2018-07-23T04:37:24.523Z,1003.74
2018-07-23T04:38:24.511Z,1003.74
2018-07-23T04:39:24.510Z,1003.74
2018-07-23T04:40:24.487Z,1003.75
2018-07-23T04:41:24.476Z,1003.75
2018-07-23T04:42:24.572Z,1003.80
2018-07-23T04:43:24.459Z,1003.82
2018-07-23T04:44:24.469Z,1003.83
2018-07-23T04:45:24.435Z,1003.85
2018-07-23T04:46:24.424Z,1003.85
2018-07-23T04:47:24.409Z,1003.90
2018-07-23T04:48:24.399Z,1003.93
2018-07-23T04:49:24.438Z,1003.95
2018-07-23T04:50:24.388Z,1003.97
2018-07-23T04:51:24.366Z,1003.99
2018-07-23T04:52:24.356Z,1003.94
2018-07-23T04:53:24.343Z,1003.99
2018-07-23T04:54:24.333Z,1004.06
2018-07-23T04:55:24.339Z,1004.02
2018-07-23T04:56:24.316Z,1004.06
2018-07-23T04:57:24.301Z,1004.10
2018-07-23T04:58:24.292Z,1004.07
2018-07-23T04:59:24.281Z,1004.10
2018-07-23T05:00:24.285Z,1004.13
2018-07-23T05:01:24.259Z,1004.15
2018-07-23T05:02:24.247Z,1004.12
2018-07-23T05:03:24.238Z,1004.13
2018-07-23T05:04:24.239Z,1004.13
2018-07-23T05:05:24.230Z,1004.14
2018-07-23T05:06:24.201Z,1004.13
2018-07-23T05:07:24.191Z,1004.15
2018-07-23T05:08:24.179Z,1004.21
2018-07-23T05:09:24.185Z,1004.22
2018-07-23T05:10:24.182Z,1004.20
2018-07-23T05:11:24.150Z,1004.21
2018-07-23T05:12:24.140Z,1004.21
2018-07-23T05:13:24.128Z,1004.19
2018-07-23T05:14:24.115Z,1004.23
2018-07-23T05:15:24.104Z,1004.19
2018-07-23T05:16:24.107Z,1004.17
2018-07-23T05:17:24.084Z,1004.19
2018-07-23T05:18:24.085Z,1004.20
2018-07-23T05:19:24.061Z,1004.23
2018-07-23T05:20:24.049Z,1004.24
2018-07-23T05:21:24.040Z,1004.24
2018-07-23T05:22:24.030Z,1004.26
2018-07-23T05:23:24.033Z,1004.25
2018-07-23T05:24:24.050Z,1004.24
2018-07-23T05:25:23.995Z,1004.24
2018-07-23T05:26:23.988Z,1004.22
2018-07-23T05:27:23.987Z,1004.24
2018-07-23T05:28:23.976Z,1004.23
2018-07-23T05:29:23.969Z,1004.25
2018-07-23T05:30:23.944Z,1004.23
2018-07-23T05:31:23.932Z,1004.21
2018-07-23T05:32:23.920Z,1004.24
2018-07-23T05:33:23.911Z,1004.25
2018-07-23T05:34:23.913Z,1004.28
2018-07-23T05:35:23.888Z,1004.24
2018-07-23T05:36:23.876Z,1004.28
2018-07-23T05:37:23.883Z,1004.24
2018-07-23T05:38:23.877Z,1004.23
2018-07-23T05:39:23.845Z,1004.22
2018-07-23T05:40:23.833Z,1004.23
2018-07-23T05:41:23.825Z,1004.17
2018-07-23T05:42:23.827Z,1004.19
2018-07-23T05:43:23.803Z,1004.19
2018-07-23T05:44:23.792Z,1004.24
2018-07-23T05:45:23.781Z,1004.22
2018-07-23T05:46:23.770Z,1004.24
2018-07-23T05:47:23.776Z,1004.30
2018-07-23T05:48:23.748Z,1004.29
2018-07-23T05:49:23.738Z,1004.29
2018-07-23T05:50:23.728Z,1004.26
2018-07-23T05:51:23.714Z,1004.25
2018-07-23T05:52:23.703Z,1004.29
2018-07-23T05:53:23.709Z,1004.27
2018-07-23T05:54:23.699Z,1004.28
2018-07-23T05:55:23.673Z,1004.30
2018-07-23T05:56:23.666Z,1004.27
2018-07-23T05:57:23.653Z,1004.34
2018-07-23T05:58:23.643Z,1004.28
2018-07-23T05:59:23.650Z,1004.26
2018-07-23T06:00:23.617Z,1004.27
2018-07-23T06:01:23.609Z,1004.29
2018-07-23T06:02:23.598Z,1004.34
2018-07-23T06:03:23.589Z,1004.31
2018-07-23T06:04:23.576Z,1004.32
2018-07-23T06:05:23.576Z,1004.29
2018-07-23T06:06:23.570Z,1004.33
2018-07-23T06:07:23.544Z,1004.31
2018-07-23T06:08:23.534Z,1004.33
2018-07-23T06:09:23.533Z,1004.33
2018-07-23T06:10:23.524Z,1004.36
2018-07-23T06:11:23.498Z,1004.36
2018-07-23T06:12:23.488Z,1004.38
2018-07-23T06:13:23.491Z,1004.36
2018-07-23T06:14:23.479Z,1004.37
2018-07-23T06:15:23.482Z,1004.43
2018-07-23T06:16:23.443Z,1004.45
2018-07-23T06:17:23.479Z,1004.43
2018-07-23T06:18:23.423Z,1004.40
2018-07-23T06:19:23.411Z,1004.38
2018-07-23T06:20:23.400Z,1004.43
2018-07-23T06:21:23.408Z,1004.36
2018-07-23T06:22:23.379Z,1004.37
2018-07-23T06:23:23.367Z,1004.37
2018-07-23T06:24:23.360Z,1004.35
2018-07-23T06:25:23.345Z,1004.28
2018-07-23T06:26:23.338Z,1004.30
2018-07-23T06:27:23.337Z,1004.30
2018-07-23T06:28:23.313Z,1004.31
2018-07-23T06:29:23.306Z,1004.27
2018-07-23T06:30:23.343Z,1004.30
2018-07-23T06:31:23.282Z,1004.30
2018-07-23T06:32:23.288Z,1004.27
2018-07-23T06:33:23.260Z,1004.37
2018-07-23T06:34:23.250Z,1004.31
2018-07-23T06:35:23.237Z,1004.31
2018-07-23T06:36:23.227Z,1004.28
2018-07-23T06:37:23.230Z,1004.28
2018-07-23T06:38:23.208Z,1004.34
2018-07-23T06:39:23.197Z,1004.33
2018-07-23T06:40:23.187Z,1004.33
2018-07-23T06:41:23.173Z,1004.32
2018-07-23T06:42:23.180Z,1004.24
2018-07-23T06:43:23.173Z,1004.27
2018-07-23T06:44:23.142Z,1004.24
2018-07-23T06:45:23.130Z,1004.23
2018-07-23T06:46:23.119Z,1004.31
2018-07-23T06:47:23.113Z,1004.29
2018-07-23T06:48:23.111Z,1004.35
2018-07-23T06:49:23.088Z,1004.41
2018-07-23T06:50:23.077Z,1004.37
2018-07-23T06:51:23.064Z,1004.34
2018-07-23T06:52:23.056Z,1004.38
2018-07-23T06:53:23.087Z,1004.40
2018-07-23T06:54:23.037Z,1004.43
2018-07-23T06:55:23.021Z,1004.43
2018-07-23T06:56:23.009Z,1004.44
2018-07-23T06:57:23.055Z,1004.43
2018-07-23T06:58:22.990Z,1004.47
2018-07-23T06:59:22.994Z,1004.49
2018-07-23T07:00:22.967Z,1004.52
2018-07-23T07:01:22.956Z,1004.55
2018-07-23T07:02:22.945Z,1004.63
2018-07-23T07:03:22.960Z,1004.67
2018-07-23T07:04:22.941Z,1004.72
2018-07-23T07:05:22.916Z,1004.73
2018-07-23T07:06:22.949Z,1004.67
2018-07-23T07:07:22.895Z,1004.72
2018-07-23T07:08:22.884Z,1004.72
2018-07-23T07:09:22.888Z,1004.75
2018-07-23T07:10:22.862Z,1004.71
2018-07-23T07:11:22.850Z,1004.68
2018-07-23T07:12:22.838Z,1004.68
2018-07-23T07:13:22.869Z,1004.73
2018-07-23T07:14:22.850Z,1004.70
2018-07-23T07:15:22.807Z,1004.71
2018-07-23T07:16:22.794Z,1004.77
2018-07-23T07:17:22.783Z,1004.78
2018-07-23T07:18:22.775Z,1004.80
2018-07-23T07:19:22.763Z,1004.83
2018-07-23T07:20:22.771Z,1004.82
2018-07-23T07:21:22.743Z,1004.82
2018-07-23T07:22:22.732Z,1004.85
2018-07-23T07:23:22.722Z,1004.85
2018-07-23T07:24:22.712Z,1004.86
2018-07-23T07:25:22.712Z,1004.90
2018-07-23T07:26:22.702Z,1004.86
2018-07-23T07:27:22.680Z,1004.89
2018-07-23T07:28:22.671Z,1004.88
2018-07-23T07:29:22.659Z,1004.86
2018-07-23T07:30:22.646Z,1004.90
2018-07-23T07:31:22.659Z,1004.89
2018-07-23T07:32:22.624Z,1004.91
2018-07-23T07:33:22.614Z,1004.89
2018-07-23T07:34:22.610Z,1004.88
2018-07-23T07:35:22.595Z,1004.90
2018-07-23T07:36:22.585Z,1004.91
2018-07-23T07:37:22.585Z,1004.90
2018-07-23T07:38:22.621Z,1004.92
2018-07-23T07:39:22.551Z,1004.93
2018-07-23T07:40:22.540Z,1004.93
2018-07-23T07:41:22.529Z,1004.88
2018-07-23T07:42:22.545Z,1004.91
2018-07-23T07:43:22.507Z,1004.92
2018-07-23T07:44:22.498Z,1004.94
2018-07-23T07:45:22.490Z,1004.98
2018-07-23T07:46:22.495Z,1004.94
2018-07-23T07:47:22.469Z,1004.93
2018-07-23T07:48:22.478Z,1004.98
2018-07-23T07:49:22.448Z,1004.98
2018-07-23T07:50:22.439Z,1004.96
2018-07-23T07:51:22.425Z,1004.97
2018-07-23T07:52:22.414Z,1004.97
2018-07-23T07:53:22.409Z,1004.92
2018-07-23T07:54:22.409Z,1004.91
2018-07-23T07:55:22.386Z,1004.88
2018-07-23T07:56:22.375Z,1004.94
2018-07-23T07:57:22.368Z,1004.95
2018-07-23T07:58:22.354Z,1004.90
2018-07-23T07:59:22.370Z,1004.93
2018-07-23T08:00:22.330Z,1004.94
2018-07-23T08:01:22.322Z,1004.95
2018-07-23T08:02:22.310Z,1005.00
2018-07-23T08:03:22.301Z,1004.98
2018-07-23T08:04:22.289Z,1004.93
2018-07-23T08:05:22.292Z,1004.94
2018-07-23T08:06:22.267Z,1004.91
2018-07-23T08:07:22.258Z,1004.93
2018-07-23T08:08:22.250Z,1004.94
2018-07-23T08:09:22.261Z,1004.97
2018-07-23T08:10:22.229Z,1004.97
2018-07-23T08:11:22.219Z,1004.95
2018-07-23T08:12:22.207Z,1004.98
2018-07-23T08:13:22.199Z,1004.99
2018-07-23T08:14:22.185Z,1004.92
2018-07-23T08:15:22.192Z,1004.99
2018-07-23T08:16:22.168Z,1004.97
2018-07-23T08:17:22.173Z,1004.98
2018-07-23T08:18:22.149Z,1005.02
2018-07-23T08:19:22.135Z,1005.04
2018-07-23T08:20:22.139Z,1005.07
2018-07-23T08:21:22.132Z,1005.07
2018-07-23T08:22:22.104Z,1005.06
2018-07-23T08:23:22.096Z,1005.07
2018-07-23T08:24:22.085Z,1005.08
2018-07-23T08:25:22.089Z,1005.08
2018-07-23T08:26:22.065Z,1005.07
2018-07-23T08:27:22.054Z,1005.07
2018-07-23T08:28:22.042Z,1005.02
2018-07-23T08:29:22.035Z,1005.02
2018-07-23T08:30:22.038Z,1005.00
2018-07-23T08:31:22.013Z,1005.05
2018-07-23T08:32:22.008Z,1005.10
2018-07-23T08:33:21.993Z,1005.06
2018-07-23T08:34:21.983Z,1005.06
2018-07-23T08:35:21.983Z,1005.09
2018-07-23T08:36:21.981Z,1005.08
2018-07-23T08:37:21.957Z,1005.16
2018-07-23T08:38:21.940Z,1005.12
2018-07-23T08:39:21.931Z,1005.16
2018-07-23T08:40:21.921Z,1005.12
2018-07-23T08:41:21.911Z,1005.08
2018-07-23T08:42:21.912Z,1005.13
2018-07-23T08:43:21.889Z,1005.12
2018-07-23T08:44:21.877Z,1005.12
2018-07-23T08:45:21.869Z,1005.06
2018-07-23T08:46:21.881Z,1005.10
2018-07-23T08:47:21.854Z,1005.14
2018-07-23T08:48:21.842Z,1005.14
2018-07-23T08:49:21.835Z,1005.13
2018-07-23T08:50:21.817Z,1005.15
2018-07-23T08:51:21.845Z,1005.19
2018-07-23T08:52:21.814Z,1005.21
2018-07-23T08:53:21.789Z,1005.21
2018-07-23T08:54:21.791Z,1005.16
2018-07-23T08:55:21.771Z,1005.21
2018-07-23T08:56:21.757Z,1005.20
2018-07-23T08:57:21.763Z,1005.20
2018-07-23T08:58:21.736Z,1005.23
2018-07-23T08:59:21.747Z,1005.19
2018-07-23T09:00:21.737Z,1005.22
2018-07-23T09:01:21.707Z,1005.17
2018-07-23T09:02:21.739Z,1005.22
2018-07-23T09:03:21.687Z,1005.24
2018-07-23T09:04:21.680Z,1005.24
2018-07-23T09:05:21.668Z,1005.23
2018-07-23T09:06:21.679Z,1005.23
2018-07-23T09:07:21.649Z,1005.26
2018-07-23T09:08:21.647Z,1005.25
2018-07-23T09:09:21.633Z,1005.27
2018-07-23T09:10:21.625Z,1005.26
2018-07-23T09:11:21.609Z,1005.29
2018-07-23T09:12:21.612Z,1005.32
2018-07-23T09:13:21.589Z,1005.27
2018-07-23T09:14:21.591Z,1005.30
2018-07-23T09:15:21.572Z,1005.32
2018-07-23T09:16:21.556Z,1005.33
2018-07-23T09:17:21.570Z,1005.34
2018-07-23T09:18:21.539Z,1005.27
2018-07-23T09:19:21.569Z,1005.31
2018-07-23T09:20:21.520Z,1005.38
2018-07-23T09:21:21.507Z,1005.33
2018-07-23T09:22:21.498Z,1005.37
2018-07-23T09:23:21.491Z,1005.37
2018-07-23T09:24:21.482Z,1005.35
2018-07-23T09:25:21.485Z,1005.41
2018-07-23T09:26:21.475Z,1005.41
2018-07-23T09:27:21.507Z,1005.43
2018-07-23T09:28:21.452Z,1005.41
2018-07-23T09:29:21.429Z,1005.44
2018-07-23T09:30:21.420Z,1005.42
2018-07-23T09:31:21.431Z,1005.42
2018-07-23T09:32:21.403Z,1005.40
2018-07-23T09:33:21.393Z,1005.38
2018-07-23T09:34:21.380Z,1005.41
2018-07-23T09:35:21.373Z,1005.39
2018-07-23T09:36:21.369Z,1005.38
2018-07-23T09:37:21.391Z,1005.42
2018-07-23T09:38:21.346Z,1005.43
2018-07-23T09:39:21.333Z,1005.44
2018-07-23T09:40:21.324Z,1005.47
2018-07-23T09:41:21.315Z,1005.48
2018-07-23T09:42:21.304Z,1005.47
2018-07-23T09:43:21.306Z,1005.42
2018-07-23T09:44:21.282Z,1005.42
2018-07-23T09:45:21.275Z,1005.43
2018-07-23T09:46:21.266Z,1005.44
2018-07-23T09:47:21.257Z,1005.37
2018-07-23T09:48:21.258Z,1005.39
2018-07-23T09:49:21.233Z,1005.43
2018-07-23T09:50:21.230Z,1005.43
2018-07-23T09:51:21.215Z,1005.41
2018-07-23T09:52:21.203Z,1005.41
2018-07-23T09:53:21.207Z,1005.45
2018-07-23T09:54:21.458Z,1005.43
2018-07-23T09:55:21.177Z,1005.42
2018-07-23T09:56:21.166Z,1005.42
2018-07-23T09:57:21.154Z,1005.41
2018-07-23T09:58:21.161Z,1005.40
2018-07-23T09:59:21.151Z,1005.39
2018-07-23T10:00:21.125Z,1005.36
2018-07-23T10:01:21.116Z,1005.41
2018-07-23T10:02:21.108Z,1005.39
2018-07-23T10:03:21.115Z,1005.40
2018-07-23T10:04:21.099Z,1005.39
2018-07-23T10:05:21.077Z,1005.39
2018-07-23T10:06:21.069Z,1005.40
2018-07-23T10:07:21.059Z,1005.36
2018-07-23T10:08:21.047Z,1005.40
2018-07-23T10:09:21.053Z,1005.43
2018-07-23T10:10:21.027Z,1005.35
2018-07-23T10:11:21.034Z,1005.33
2018-07-23T10:12:21.007Z,1005.34
2018-07-23T10:13:20.998Z,1005.35
2018-07-23T10:14:21.002Z,1005.40
2018-07-23T10:15:20.982Z,1005.37
2018-07-23T10:16:21.012Z,1005.39
2018-07-23T10:17:20.960Z,1005.40
2018-07-23T10:18:20.956Z,1005.42
2018-07-23T10:19:20.945Z,1005.41
2018-07-23T10:20:20.940Z,1005.43
2018-07-23T10:21:20.924Z,1005.44
2018-07-23T10:22:20.941Z,1005.45
2018-07-23T10:23:20.910Z,1005.43
2018-07-23T10:24:20.897Z,1005.44
2018-07-23T10:25:20.891Z,1005.44
2018-07-23T10:26:20.883Z,1005.43
2018-07-23T10:27:20.873Z,1005.42
2018-07-23T10:28:20.876Z,1005.42
2018-07-23T10:29:20.854Z,1005.38
2018-07-23T10:30:20.844Z,1005.38
2018-07-23T10:31:20.834Z,1005.37
2018-07-23T10:32:20.843Z,1005.42
2018-07-23T10:33:20.813Z,1005.40
2018-07-23T10:34:20.806Z,1005.41
2018-07-23T10:35:20.794Z,1005.46
2018-07-23T10:36:20.785Z,1005.48
2018-07-23T10:37:20.779Z,1005.40
2018-07-23T10:38:20.782Z,1005.43
2018-07-23T10:39:20.760Z,1005.43
2018-07-23T10:40:20.761Z,1005.45
2018-07-23T10:41:20.739Z,1005.48
2018-07-23T10:42:20.729Z,1005.44
2018-07-23T10:43:20.720Z,1005.46
2018-07-23T10:44:20.726Z,1005.43
2018-07-23T10:45:20.702Z,1005.40
2018-07-23T10:46:20.691Z,1005.44
2018-07-23T10:47:20.684Z,1005.40
2018-07-23T10:48:20.686Z,1005.39
2018-07-23T10:49:20.677Z,1005.37
2018-07-23T10:50:20.659Z,1005.37
2018-07-23T10:51:20.647Z,1005.39
2018-07-23T10:52:20.640Z,1005.36
2018-07-23T10:53:20.626Z,1005.34
2018-07-23T10:54:20.635Z,1005.33
2018-07-23T10:55:20.609Z,1005.39
2018-07-23T10:56:20.600Z,1005.34
2018-07-23T10:57:20.593Z,1005.42
2018-07-23T10:58:20.583Z,1005.41
2018-07-23T10:59:20.574Z,1005.42
2018-07-23T11:00:20.576Z,1005.40
2018-07-23T11:01:20.556Z,1005.40
2018-07-23T11:02:20.543Z,1005.38
2018-07-23T11:03:20.535Z,1005.39
2018-07-23T11:04:20.601Z,1005.41
2018-07-23T11:05:20.530Z,1005.35
2018-07-23T11:06:20.503Z,1005.35
2018-07-23T11:07:20.499Z,1005.35
2018-07-23T11:08:20.485Z,1005.37
2018-07-23T11:09:20.478Z,1005.43
2018-07-23T11:10:20.483Z,1005.36
2018-07-23T11:11:20.480Z,1005.35
2018-07-23T11:12:20.448Z,1005.34
2018-07-23T11:13:20.437Z,1005.32
2018-07-23T11:14:20.426Z,1005.31
2018-07-23T11:15:20.436Z,1005.33
2018-07-23T11:16:20.410Z,1005.35
2018-07-23T11:17:20.415Z,1005.33
2018-07-23T11:18:20.392Z,1005.30
2018-07-23T11:19:20.441Z,1005.33
2018-07-23T11:20:20.369Z,1005.33
2018-07-23T11:21:20.377Z,1005.34
2018-07-23T11:22:20.351Z,1005.34
2018-07-23T11:23:20.339Z,1005.34
2018-07-23T11:24:20.331Z,1005.38
2018-07-23T11:25:38.976Z,1005.37
2018-07-23T11:26:21.396Z,1005.40
2018-07-23T11:27:20.303Z,1005.42
2018-07-23T11:28:20.294Z,1005.44
2018-07-23T11:29:20.294Z,1005.36
2018-07-23T11:30:20.271Z,1005.40
2018-07-23T11:31:20.279Z,1005.40
2018-07-23T11:32:20.280Z,1005.36
2018-07-23T11:33:20.244Z,1005.35
2018-07-23T11:34:20.236Z,1005.34
2018-07-23T11:35:20.224Z,1005.37
2018-07-23T11:36:20.217Z,1005.40
2018-07-23T11:37:20.203Z,1005.37
2018-07-23T11:38:20.225Z,1005.36
2018-07-23T11:39:20.225Z,1005.33
2018-07-23T11:40:20.176Z,1005.35
2018-07-23T11:41:20.170Z,1005.40
2018-07-23T11:42:20.160Z,1005.34
2018-07-23T11:43:20.161Z,1005.40
2018-07-23T11:44:20.140Z,1005.39
2018-07-23T11:45:20.189Z,1005.41
2018-07-23T11:46:24.982Z,1005.40
2018-07-23T11:47:20.128Z,1005.42
2018-07-23T11:48:20.101Z,1005.31
2018-07-23T11:49:20.094Z,1005.32
2018-07-23T11:50:20.083Z,1005.42
2018-07-23T11:51:20.073Z,1005.39
2018-07-23T11:52:20.078Z,1005.39
2018-07-23T11:53:20.110Z,1005.39
2018-07-23T11:54:20.047Z,1005.44
2018-07-23T11:55:20.037Z,1005.38
2018-07-23T11:56:20.029Z,1005.40
2018-07-23T11:57:20.044Z,1005.45
2018-07-23T11:58:20.012Z,1005.42
2018-07-23T11:59:20.004Z,1005.48
2018-07-23T12:00:19.995Z,1005.38
2018-07-23T12:01:19.987Z,1005.36
2018-07-23T12:02:19.973Z,1005.35
2018-07-23T12:03:19.978Z,1005.39
2018-07-23T12:04:20.055Z,1005.31
2018-07-23T12:05:19.948Z,1005.35